Date,TemperatureHighF,TemperatureAvgF,TemperatureLowF,DewpointHighF,DewpointAvgF,DewpointLowF,HumidityHigh,HumidityAvg,HumidityLow,PressureMaxIn,PressureMinIn,WindSpeedMaxMPH,WindSpeedAvgMPH,GustSpeedMaxMPH,PrecipitationSumIn
2012-1-1,47,38,32,46,36,28,99,92,80,30.08,29.64,7,2,18,0.22
2012-1-2,30,24,20,23,20,15,93,85,58,29.89,29.77,8,4,17,0.12
2012-1-3,20,13,5,18,7,-3,92,76,54,30.19,29.87,5,2,13,0.06
2012-1-4,30,17,4,22,9,-2,87,74,39,30.17,29.89,5,2,9,0.00
2012-1-5,38,30,26,26,24,22,88,78,57,29.98,29.84,6,2,12,0.00
2012-1-6,54,46,38,34,30,24,63,53,44,29.86,29.76,7,5,13,0.01
2012-1-7,50,45,33,41,32,22,79,62,36,30.07,29.76,7,3,12,0.00
2012-1-8,34,32,26,28,24,20,88,75,62,30.29,30.07,3,0,6,0.00
2012-1-9,40,31,24,27,24,21,89,74,58,30.26,29.96,4,1,11,0.00
2012-1-10,41,35,30,30,27,22,87,72,58,30.01,29.91,5,2,11,0.00
2012-1-11,40,32,25,36,30,23,98,92,72,29.98,29.55,2,0,6,0.81
2012-1-12,44,39,36,41,38,35,99,97,89,29.55,29.30,6,1,10,0.37
2012-1-13,37,18,14,35,15,10,96,87,80,29.86,29.31,8,5,15,0.31
2012-1-14,20,17,14,16,13,11,89,86,81,30.09,29.86,5,3,9,0.06
2012-1-15,23,17,12,14,12,9,91,81,56,30.46,30.08,3,1,6,0.00
2012-1-16,42,24,12,39,20,9,98,85,56,30.42,29.96,8,1,9,0.25
2012-1-17,55,47,35,49,43,29,98,87,76,29.96,29.57,12,6,20,0.33
2012-1-18,35,25,15,29,18,11,89,77,63,30.11,29.76,5,2,13,0.02
2012-1-19,31,21,11,25,17,10,94,83,55,30.08,29.80,7,2,11,0.17
2012-1-20,22,16,9,18,10,5,92,77,54,30.19,29.93,3,1,5,0.00
2012-1-21,26,22,17,24,20,16,94,91,87,30.23,29.86,2,0,5,0.58
2012-1-22,30,24,13,28,22,12,95,91,85,30.30,30.16,4,1,9,0.00
2012-1-23,47,38,29,45,36,28,98,94,82,30.16,29.70,4,1,7,0.20
2012-1-24,41,36,30,36,32,27,90,83,75,30.25,29.87,6,3,14,0.00
2012-1-25,37,31,27,30,27,24,91,84,73,30.33,30.13,2,1,7,0.00
2012-1-26,40,34,31,40,34,30,99,97,90,30.14,29.60,1,0,3,0.72
2012-1-27,51,38,30,51,36,27,100,94,84,29.99,29.41,7,3,16,0.58
2012-1-28,39,32,27,35,26,13,94,80,53,30.10,29.83,7,3,15,0.03
2012-1-29,38,30,25,28,18,14,94,63,44,30.14,29.91,9,4,16,0.00
2012-1-30,48,29,18,27,18,13,83,65,43,30.28,30.07,8,2,12,0.00
2012-1-31,57,51,45,34,28,26,49,42,33,30.16,29.99,9,6,17,0.00
2012-2-1,54,47,42,45,42,31,92,83,41,30.05,29.96,8,4,15,0.11
2012-2-2,42,35,30,40,32,26,98,90,78,30.34,29.99,4,1,10,0.00
2012-2-3,43,34,29,32,28,25,88,79,62,30.48,30.31,2,0,5,0.03
2012-2-4,33,30,27,31,29,25,98,94,88,30.31,30.04,1,0,2,0.14
2012-2-5,40,32,28,32,27,22,98,83,62,30.18,30.03,3,0,7,0.14
2012-2-6,44,34,24,28,24,21,90,68,47,30.17,30.02,4,2,7,0.03
2012-2-7,39,33,30,30,26,24,86,77,64,30.20,30.05,3,1,7,0.00
2012-2-8,32,28,25,31,26,22,95,91,85,30.20,30.06,3,0,4,0.15
2012-2-9,33,26,20,22,19,17,90,76,57,30.22,30.13,3,2,6,0.03
2012-2-10,31,28,25,26,22,19,95,80,72,30.14,29.82,4,1,7,0.00
2012-2-11,29,20,12,26,18,8,94,89,83,29.97,29.70,5,2,11,0.18
2012-2-12,18,14,10,14,10,7,88,84,75,30.06,29.95,6,4,15,0.02
2012-2-13,32,24,16,20,16,12,85,72,53,30.12,30.01,5,2,9,0.01
2012-2-14,41,31,26,32,26,18,98,82,56,30.02,29.88,4,0,10,0.02
2012-2-15,37,32,31,32,29,28,98,89,76,30.25,29.99,3,1,10,0.07
2012-2-16,43,36,31,42,35,28,99,96,85,30.19,29.93,3,0,5,0.52
2012-2-17,42,36,32,41,30,24,98,79,56,30.10,29.96,5,2,12,0.06
2012-2-18,44,32,25,32,24,21,90,74,54,30.09,29.88,7,2,13,0.00
2012-2-19,38,31,26,24,22,20,84,71,55,30.09,29.90,5,2,7,0.00
2012-2-20,38,29,21,23,19,17,86,68,48,30.27,30.00,4,1,8,0.00
2012-2-21,40,33,26,38,25,18,95,71,51,30.23,29.77,4,1,8,0.19
2012-2-22,50,43,35,38,34,30,93,73,46,29.79,29.42,7,3,13,0.02
2012-2-23,50,44,38,39,34,29,93,69,46,29.64,29.41,6,2,10,0.11
2012-2-24,55,40,28,49,36,25,97,87,60,29.65,29.35,9,3,17,0.05
2012-2-25,28,26,24,26,22,20,95,88,77,30.22,29.64,7,4,14,0.16
2012-2-26,39,30,24,23,20,18,90,68,51,30.41,30.22,3,1,10,0.04
2012-2-27,55,39,26,35,25,18,78,58,38,30.35,30.10,8,3,19,0.00
2012-2-28,46,35,25,27,22,19,85,62,35,30.46,30.20,4,1,11,0.00
2012-2-29,54,40,33,51,36,21,99,87,51,30.20,29.55,8,1,11,1.22
2012-3-1,54,42,32,51,34,27,90,74,61,29.92,29.55,8,4,20,0.00
2012-3-2,48,38,27,42,33,25,97,84,61,29.94,29.53,4,1,11,0.26
2012-3-3,50,39,30,46,30,20,99,72,49,29.75,29.45,8,3,15,0.00
2012-3-4,33,28,25,25,22,17,94,77,56,29.81,29.67,6,2,11,0.00
2012-3-5,28,25,21,24,20,15,93,82,63,30.40,29.81,4,1,9,0.07
2012-3-6,43,30,15,25,20,12,89,69,47,30.55,30.38,3,1,7,0.09
2012-3-7,64,47,31,35,28,23,75,51,31,30.44,30.24,7,2,11,0.00
2012-3-8,62,50,36,52,42,32,96,78,55,30.23,29.91,8,3,12,0.76
2012-3-9,39,33,26,32,24,16,89,71,53,30.34,30.06,7,3,17,0.00
2012-3-10,42,30,20,19,14,12,76,55,33,30.52,30.34,3,1,7,0.00
2012-3-11,64,46,27,31,23,14,67,43,24,30.45,30.31,5,1,9,0.00
2012-3-12,67,48,38,50,37,27,99,69,31,30.33,30.08,2,1,3,0.24
2012-3-13,69,60,50,56,52,44,99,75,52,30.10,30.01,7,4,12,0.00
2012-3-14,71,58,45,48,41,26,73,54,31,30.24,30.10,4,1,8,0.00
2012-3-15,73,58,46,50,46,41,86,65,40,30.23,30.12,6,1,9,0.00
2012-3-16,68,60,54,57,53,49,94,78,66,30.18,30.11,4,1,7,0.08
2012-3-17,75,58,44,56,48,43,99,74,36,30.31,30.21,3,1,7,0.00
2012-3-18,72,62,52,59,54,50,94,77,55,30.29,30.16,2,0,5,0.00
2012-3-19,64,56,53,59,55,52,99,94,81,30.21,30.14,3,0,4,0.16
2012-3-20,74,60,51,59,54,50,99,83,52,30.28,30.19,3,0,5,0.00
2012-3-21,65,58,53,57,55,52,99,90,75,30.33,30.23,3,1,6,0.00
2012-3-22,79,65,57,61,55,50,96,73,42,30.27,30.12,3,0,7,0.00
2012-3-23,79,65,49,61,55,49,99,74,41,30.16,29.96,4,1,6,0.17
2012-3-24,59,56,52,58,56,51,100,98,95,29.99,29.86,2,0,5,2.14
2012-3-25,59,53,49,55,51,48,100,94,81,29.92,29.81,3,0,6,0.01
2012-3-26,52,41,29,49,29,12,91,65,36,30.25,29.90,6,2,16,0.00
2012-3-27,53,37,21,22,15,10,70,44,23,30.33,30.07,3,1,6,0.00
2012-3-28,68,57,40,57,41,21,94,56,30,30.07,29.69,8,3,16,0.37
2012-3-29,51,42,34,42,34,29,82,73,58,30.06,29.80,4,2,8,0.00
2012-3-30,63,44,28,45,35,26,97,75,46,30.06,29.75,3,1,6,0.40
2012-3-31,54,46,41,54,44,38,99,92,81,29.90,29.71,4,1,10,0.06
2012-4-1,61,48,39,48,40,35,95,75,42,29.90,29.62,3,1,6,0.05
2012-4-2,56,46,38,44,31,22,96,59,33,29.99,29.66,6,1,9,0.02
2012-4-3,67,50,31,30,22,11,72,37,12,30.04,29.80,3,0,5,0.00
2012-4-4,66,54,42,42,33,23,73,47,21,29.85,29.71,4,1,7,0.00
2012-4-5,54,41,33,30,27,24,74,58,34,29.90,29.82,3,1,6,0.00
2012-4-6,56,43,31,27,20,9,72,45,20,30.16,29.94,5,1,15,0.00
2012-4-7,58,46,33,25,20,13,61,37,24,30.26,30.13,4,1,7,0.00
2012-4-8,60,50,39,41,28,15,63,44,32,30.14,29.92,4,2,13,0.00
2012-4-9,54,45,38,37,31,22,92,61,38,29.97,29.79,6,3,11,0.30
2012-4-10,47,40,32,36,29,25,89,67,46,29.92,29.76,5,2,12,0.03
2012-4-11,40,35,31,37,30,27,94,83,66,30.10,29.86,3,1,6,0.25
2012-4-12,49,40,32,35,31,28,90,72,50,30.20,30.09,2,0,6,0.00
2012-4-13,62,46,29,35,29,25,92,56,26,30.28,30.17,3,0,8,0.00
2012-4-14,65,48,35,50,37,28,98,68,30,30.23,30.06,5,1,8,0.23
2012-4-15,78,64,51,59,54,49,99,70,44,30.08,30.00,6,3,11,0.05
2012-4-16,84,72,55,59,54,49,78,53,40,30.09,29.92,7,3,12,0.00
2012-4-17,64,54,46,49,40,34,78,59,39,30.32,30.10,3,1,6,0.00
2012-4-18,60,51,44,44,35,26,92,57,38,30.28,30.09,3,1,5,0.00
2012-4-19,68,50,41,49,44,40,98,82,46,30.12,30.07,3,0,4,0.00
2012-4-20,76,61,44,51,45,38,84,58,33,30.02,29.77,3,1,0,0.00
2012-4-21,58,51,41,51,48,41,98,88,76,29.87,29.73,2,0,0,0.14
2012-4-22,41,39,32,41,38,32,98,95,88,29.85,29.58,2,1,0,0.13
2012-4-23,33,32,31,32,31,30,98,97,91,29.57,29.39,11,1,11,1.13
2012-4-24,47,38,30,32,28,24,93,69,43,29.69,29.45,11,2,11,0.69
2012-4-25,61,46,37,37,30,24,72,53,31,29.87,29.68,8,1,8,0.00
2012-4-26,67,52,40,58,44,32,95,75,55,29.86,29.61,4,1,8,0.12
2012-4-27,50,42,36,36,31,24,87,67,44,30.22,29.86,3,2,7,0.00
2012-4-28,45,41,34,35,30,23,80,66,45,30.26,30.10,2,0,3,0.01
2012-4-29,52,46,39,36,27,21,78,51,31,30.26,30.14,2,0,2,0.00
2012-4-30,73,60,44,47,41,19,83,52,33,30.26,30.02,3,1,3,0.00
2012-5-1,72,63,52,60,55,47,99,78,51,30.07,29.95,4,1,9,0.18
2012-5-2,78,67,56,67,61,53,99,82,64,30.10,30.01,4,1,7,0.16
2012-5-3,83,72,60,70,63,58,98,74,53,30.15,30.02,4,1,7,0.38
2012-5-4,83,72,63,66,62,55,95,71,42,30.07,29.95,5,1,7,0.00
2012-5-5,75,65,58,64,60,57,99,86,65,30.04,29.93,1,0,3,0.01
2012-5-6,78,68,57,63,58,49,98,72,42,30.06,30.00,2,0,4,0.00
2012-5-7,75,64,58,64,60,57,96,86,65,30.05,29.91,2,0,6,0.04
2012-5-8,69,61,58,64,60,57,100,96,81,29.92,29.78,3,0,6,1.32
2012-5-9,61,56,47,57,51,46,99,87,62,29.85,29.72,1,0,3,0.14
2012-5-10,57,48,44,47,41,34,96,77,50,29.99,29.72,3,1,7,0.04
2012-5-11,67,53,38,43,38,34,87,58,36,30.22,29.98,3,1,6,0.00
2012-5-12,74,58,40,50,43,38,92,60,31,30.33,30.21,2,0,4,0.00
2012-5-13,61,55,50,54,50,44,98,82,62,30.24,30.15,2,0,2,0.12
2012-5-14,60,56,52,58,55,52,99,98,92,30.15,30.01,1,0,2,0.36
2012-5-15,70,60,57,62,58,56,100,92,68,30.04,29.97,1,0,3,0.02
2012-5-16,76,62,51,59,54,50,99,80,41,29.99,29.90,4,1,7,0.00
2012-5-17,65,61,57,40,39,38,51,44,38,30.14,30.11,0,0,0,0.00
2012-5-18,77,58,41,47,42,38,92,59,30,30.22,30.13,2,0,7,0.00
2012-5-19,80,60,45,56,47,43,94,67,30,30.23,30.15,2,0,4,0.00
2012-5-20,82,65,52,58,51,48,92,64,36,30.26,30.13,2,0,5,0.00
2012-5-21,68,63,58,62,57,48,93,83,57,30.14,29.95,1,0,4,0.00
2012-5-22,78,65,59,63,60,57,98,85,57,29.95,29.84,0,0,3,0.00
2012-5-23,75,62,56,64,59,55,98,89,65,29.99,29.91,2,0,3,0.00
2012-5-25,84,76,68,67,64,60,86,67,49,30.16,30.11,2,0,3,0.00
2012-5-26,87,72,63,71,66,61,100,85,59,30.21,30.13,2,0,2,0.62
2012-5-27,83,67,61,74,65,61,100,94,70,30.19,30.09,3,0,4,0.96
2012-5-28,86,71,59,73,66,58,100,86,60,30.11,29.97,2,0,3,0.00
2012-5-29,82,69,61,71,66,60,99,92,65,29.97,29.81,4,0,6,0.68
2012-5-30,76,65,54,64,58,48,100,79,52,29.89,29.79,3,0,4,0.02
2012-5-31,75,62,50,56,50,45,93,67,45,29.97,29.85,2,0,3,0.00
2012-6-1,66,62,52,65,56,49,98,83,74,29.92,29.65,2,0,10,0.42
2012-6-2,64,55,49,52,48,45,92,76,55,29.86,29.77,3,2,7,0.00
2012-6-3,66,55,53,54,50,46,98,83,56,29.86,29.75,3,1,6,0.47
2012-6-4,55,53,50,52,50,48,93,89,81,29.77,29.72,2,1,3,0.01
2012-6-5,59,51,48,55,50,47,97,93,82,29.99,29.84,3,0,5,0.13
2012-6-6,70,56,46,54,48,45,99,79,45,30.05,29.99,2,0,4,0.00
2012-6-7,73,58,47,57,51,46,97,78,49,30.08,30.02,2,0,3,0.01
2012-6-8,75,59,49,58,52,48,98,81,49,30.09,30.01,2,0,4,0.00
2012-6-9,82,68,53,58,53,48,89,62,38,30.08,30.01,3,1,5,0.00
2012-6-10,86,71,56,63,58,53,89,64,42,30.17,30.08,2,0,5,0.00
2012-6-11,77,68,59,65,61,56,98,79,60,30.16,30.06,2,0,6,0.08
2012-6-12,77,67,64,71,66,62,100,96,80,30.06,29.88,3,0,4,0.82
2012-6-13,73,62,53,63,52,45,97,72,49,30.16,29.98,2,0,3,0.00
2012-6-14,76,62,49,59,53,48,97,76,51,30.25,30.16,2,0,4,0.00
2012-6-15,77,65,56,60,57,54,95,75,52,30.32,30.23,2,0,6,0.00
2012-6-16,77,64,52,60,56,51,96,77,52,30.36,30.21,2,0,7,0.00
2012-6-17,79,67,54,64,58,52,94,76,57,30.20,30.01,2,0,5,0.00
2012-6-18,77,65,60,69,63,59,99,93,75,30.10,30.00,2,0,7,0.47
2012-6-19,84,72,63,71,66,63,100,83,60,30.18,30.09,2,0,4,0.00
2012-6-20,89,76,64,71,67,63,97,76,52,30.25,30.10,1,0,3,0.00
2012-6-21,87,76,65,72,68,63,96,77,56,30.12,29.93,2,0,3,0.00
2012-6-22,78,72,68,69,65,60,94,80,60,29.97,29.91,2,0,3,0.00
2012-6-23,80,72,64,59,57,51,72,59,46,30.11,30.04,1,0,2,0.00
2012-6-24,79,67,55,62,56,51,93,69,45,30.12,29.95,1,0,2,0.00
2012-6-25,72,63,54,60,53,44,97,72,44,29.95,29.84,3,1,5,0.07
2012-6-26,72,60,49,52,48,45,87,67,44,30.00,29.91,2,0,6,0.00
2012-6-27,80,67,54,58,54,49,87,65,42,30.04,29.93,2,0,5,0.00
2012-6-28,89,74,60,67,59,52,79,60,41,29.99,29.81,3,1,5,0.00
2012-6-29,92,81,65,76,70,65,98,71,52,29.92,29.78,4,1,7,0.32
2012-6-30,80,67,60,68,64,60,99,91,59,29.97,29.85,3,0,5,0.00
2012-7-1,89,76,68,69,65,60,90,70,45,30.04,29.92,2,0,4,0.10
2012-7-2,84,72,61,68,63,60,97,75,48,30.09,30.02,2,0,3,0.00
2012-7-3,85,69,59,69,64,58,100,86,55,30.08,29.96,4,0,7,1.25
2012-7-4,87,72,62,76,67,62,100,87,64,30.06,29.91,4,1,6,0.67
2012-7-5,87,76,67,73,68,63,98,77,56,30.02,29.93,2,0,5,0.00
2012-7-6,91,78,67,76,71,66,97,79,58,30.07,30.00,1,0,3,0.00
2012-7-7,93,77,67,77,71,65,98,82,56,30.05,29.95,3,0,6,0.00
2012-7-10,84,70,55,62,57,54,96,68,41,30.14,30.05,2,0,0,0.00
2012-7-11,85,70,57,65,59,54,92,69,43,30.21,30.13,1,0,0,0.00
2012-7-12,85,72,61,65,61,57,97,72,41,30.25,30.19,1,0,1,0.00
2012-7-13,73,69,66,64,61,59,84,77,63,30.30,30.24,0,0,2,0.01
2012-7-14,78,68,62,71,65,60,99,91,77,30.26,30.16,1,0,0,0.15
2012-7-15,82,71,67,72,69,66,99,93,68,30.20,30.08,2,0,0,0.85
2012-7-16,86,74,67,75,68,61,100,83,53,30.10,29.98,2,0,0,0.00
2012-7-17,88,76,61,73,67,60,97,76,52,30.02,29.91,3,1,0,0.00
2012-7-18,84,73,66,75,70,66,99,90,75,30.04,29.94,2,0,4,0.43
2012-7-19,83,69,65,74,68,64,100,94,69,30.06,29.94,3,0,5,0.74
2012-7-20,69,67,62,69,67,62,100,100,99,30.05,29.95,2,0,3,1.18
2012-7-21,68,63,59,65,62,59,100,97,90,30.17,30.04,0,0,2,0.10
2012-7-22,80,70,63,70,65,63,99,85,58,30.22,30.16,1,0,2,0.00
2012-7-23,81,71,63,71,66,62,98,86,64,30.19,29.97,3,1,6,0.00
2012-7-24,82,75,67,74,69,61,93,82,66,29.97,29.83,3,1,6,0.00
2012-7-25,67,66,64,61,59,58,81,80,79,29.97,29.96,1,0,3,0.00
2012-7-26,87,72,64,76,68,58,100,89,66,29.88,29.74,3,1,5,2.30
2012-7-27,81,70,65,72,68,64,100,94,67,29.99,29.81,3,1,4,0.45
2012-7-28,77,67,63,70,65,62,100,93,75,30.07,29.94,2,0,4,0.39
2012-7-29,81,69,62,65,61,57,99,79,51,30.13,30.05,2,0,4,0.01
2012-7-30,78,62,55,66,59,55,99,91,59,30.15,30.10,1,0,3,0.00
2012-7-31,74,67,62,71,66,62,99,96,88,30.06,29.93,2,0,3,0.94
2012-8-1,82,74,61,71,67,61,100,81,63,29.96,29.90,1,0,2,0.01
2012-8-2,86,76,68,68,66,62,88,70,53,30.01,29.96,0,0,2,0.00
2012-8-3,85,69,66,74,65,63,92,89,72,30.07,30.00,0,0,2,0.00
2012-8-4,83,72,67,76,70,67,99,92,70,30.19,30.11,3,0,1,0.46
2012-8-5,76,71,68,73,69,66,100,95,86,30.16,30.07,3,1,4,0.20
2012-8-6,81,72,63,70,63,58,98,74,53,30.17,30.09,1,0,3,0.00
2012-8-7,82,67,55,67,60,54,98,80,52,30.10,30.02,1,0,3,0.00
2012-8-8,84,70,58,69,63,57,98,80,59,30.08,30.00,2,0,3,0.00
2012-8-9,81,69,63,72,65,62,98,88,70,30.02,29.87,2,0,3,0.02
2012-8-10,75,65,62,71,64,60,100,96,82,29.93,29.76,1,0,4,0.79
2012-8-11,66,62,60,61,58,55,97,87,75,30.01,29.83,4,1,7,0.00
2012-8-12,66,61,59,60,58,56,93,89,80,30.08,29.98,2,0,4,0.00
2012-8-13,80,70,58,64,60,57,96,73,54,30.08,30.02,0,0,0,0.00
2012-8-14,79,69,61,68,65,60,99,86,60,30.01,29.88,2,0,3,0.29
2012-8-15,74,66,63,67,63,58,99,90,72,30.03,29.93,1,0,2,0.00
2012-8-16,73,66,63,64,60,56,87,79,69,30.06,30.03,1,0,2,0.00
2012-8-17,72,65,59,66,62,57,97,91,80,29.98,29.91,1,0,2,0.04
2012-8-18,73,64,58,60,56,51,99,76,47,30.04,29.96,1,0,3,0.00
2012-8-19,75,64,54,63,59,52,98,85,62,30.01,29.90,2,0,5,0.12
2012-8-20,65,59,58,62,59,58,99,98,90,29.97,29.91,0,0,0,0.00
2012-8-21,76,62,51,61,55,51,98,81,48,30.17,30.04,1,0,3,0.00
2012-8-22,77,62,52,63,55,51,98,79,48,30.21,30.15,1,0,2,0.00
2012-8-23,81,65,53,63,57,52,98,78,48,30.25,30.17,1,0,2,0.00
2012-8-24,81,67,54,65,60,54,98,81,53,30.25,30.17,1,0,3,0.00
2012-8-25,79,68,59,67,61,58,98,83,52,30.28,30.22,2,0,6,0.00
2012-8-27,82,71,62,69,65,62,99,83,58,30.19,30.01,2,0,0,0.00
2012-8-28,77,69,62,67,63,57,98,83,63,30.08,29.98,2,0,0,0.22
2012-8-29,74,63,54,61,57,53,99,81,56,30.13,30.05,1,0,0,0.00
2012-8-30,80,63,49,62,55,48,98,78,43,30.20,30.12,1,0,0,0.00
2012-8-31,85,70,54,68,60,53,98,75,51,30.21,30.10,2,1,0,0.00
2012-9-1,81,73,66,74,68,66,99,87,73,30.18,30.09,1,0,0,0.47
2012-9-2,75,68,66,71,68,66,100,98,87,30.13,30.03,1,0,0,0.10
2012-9-5,80,72,66,70,68,64,100,89,68,29.95,29.88,1,0,0,0.01
2012-9-6,83,72,64,70,66,63,99,84,62,29.99,29.93,1,0,0,0.00
2012-9-7,83,71,63,69,65,62,99,85,57,30.03,29.85,1,0,0,0.09
2012-9-8,68,61,55,65,60,54,99,96,88,29.90,29.69,3,0,0,0.55
2012-9-9,62,56,52,55,53,50,99,89,72,30.06,29.89,1,0,0,0.02
2012-9-10,62,55,49,50,48,44,96,80,61,30.25,30.07,2,0,0,0.00
2012-9-11,70,54,40,52,44,39,97,74,38,30.36,30.25,1,0,0,0.00
2012-9-12,77,60,44,59,52,43,98,78,47,30.40,30.31,1,0,0,0.00
2012-9-13,78,61,52,62,56,51,98,85,57,30.41,30.29,1,0,0,0.00
2012-9-14,77,63,53,62,57,52,98,83,52,30.32,30.17,2,0,0,0.07
2012-9-15,64,56,49,55,51,48,97,86,69,30.33,30.19,1,0,0,0.00
2012-9-16,63,50,43,51,46,42,98,88,58,30.24,30.16,0,0,0,0.00
2012-9-22,69,60,48,59,54,44,93,82,61,30.06,29.83,4,1,0,0.03
2012-9-23,55,48,45,45,43,41,92,82,60,30.20,30.06,2,0,0,0.00
2012-9-24,55,46,39,44,41,38,98,83,58,30.25,30.12,2,0,0,0.16
2012-9-25,66,50,36,52,44,35,96,79,48,30.17,30.07,2,0,0,0.00
2012-9-26,63,59,54,60,58,52,99,94,87,30.17,30.06,4,1,0,0.70
2012-9-27,63,60,59,62,60,58,99,98,95,30.23,30.12,1,0,0,1.34
2012-9-28,60,56,50,60,54,47,100,91,75,30.14,30.07,1,0,0,0.08
2012-9-30,51,51,51,50,50,50,97,97,97,29.89,29.89,0,0,1,0.21
2012-10-3,69,64,61,64,62,60,100,91,80,30.20,29.98,1,0,0,0.00
2012-10-4,68,62,57,61,57,52,99,84,60,30.23,30.17,2,0,0,0.00
2012-10-5,71,62,56,59,55,53,91,79,63,30.18,29.95,2,1,0,0.00
2012-10-6,58,50,42,55,45,36,97,84,61,30.10,29.85,1,0,0,0.07
2012-10-7,49,42,37,42,38,36,95,88,70,30.16,30.02,1,0,0,0.11
2012-10-8,45,38,32,39,36,32,98,92,71,30.26,30.16,1,0,0,0.00
2012-10-9,59,46,38,44,40,36,97,80,54,30.20,30.06,1,0,2,0.00
2012-10-17,67,49,33,47,39,32,98,73,35,29.98,29.86,1,0,0,0.00
2012-10-18,61,52,45,53,46,42,97,83,63,29.87,29.75,2,0,0,0.53
2012-10-19,64,52,45,52,45,40,99,81,43,29.85,29.63,3,0,0,0.13
2012-10-20,50,46,44,44,41,40,91,82,68,29.93,29.70,5,2,0,0.03
2012-10-21,54,47,42,43,40,38,92,78,57,30.15,29.93,2,1,0,0.00
2012-10-22,67,52,36,51,44,34,96,74,51,30.21,30.13,1,0,0,0.00
2012-10-23,72,60,51,57,52,48,97,75,53,30.15,30.07,3,1,2,0.11
2012-10-29,42,39,33,42,38,32,98,98,97,29.77,28.91,7,2,0,3.13
2012-10-30,41,36,32,41,36,31,99,98,97,29.37,28.83,6,1,0,1.08
2012-10-31,36,34,32,35,33,31,99,97,94,29.62,29.37,5,2,0,0.61
2012-11-1,38,36,34,37,35,33,97,96,92,29.73,29.60,4,3,0,0.22
2012-11-2,39,35,33,34,32,30,95,90,83,29.93,29.70,3,2,0,0.06
2012-11-3,37,34,32,34,32,29,93,90,84,30.07,29.93,2,1,0,0.03
2012-11-4,36,34,32,31,29,27,89,82,73,30.07,30.03,1,0,3,0.00
2012-11-5,38,33,31,28,27,23,85,77,65,30.14,30.04,2,0,0,0.00
2012-11-6,42,32,24,28,24,21,88,74,55,30.12,29.96,2,0,0,0.00
2012-11-7,36,31,26,27,23,20,88,74,60,29.98,29.90,2,0,0,0.00
2012-11-8,42,33,26,29,25,20,84,72,57,30.11,29.97,2,1,0,0.00
2012-11-9,49,39,31,37,32,28,90,78,61,30.23,30.11,2,1,0,0.00
2012-11-10,63,45,35,42,36,31,93,73,41,30.30,30.20,2,0,1,0.00
2012-11-11,70,53,38,46,38,34,86,59,32,30.42,30.29,2,0,0,0.00
2012-11-12,54,53,52,47,44,40,80,71,59,30.31,30.26,1,0,0,0.00
2012-11-17,48,48,47,29,29,29,49,48,47,30.54,30.53,2,1,3,0.00
2012-11-19,49,44,35,38,35,32,89,71,63,30.35,30.21,1,0,0,0.00
2012-11-20,35,35,35,32,32,32,89,89,89,30.20,30.20,0,0,0,0.00
2012-11-24,28,28,27,25,25,24,90,89,88,29.93,29.92,3,2,8,0.03
2012-11-25,33,31,25,22,21,20,79,67,62,29.98,29.84,5,4,8,0.01
2012-11-26,31,31,31,25,25,25,79,79,79,30.08,30.08,1,0,9,0.00
2012-12-1,48,44,39,36,34,33,79,71,63,30.32,30.29,0,0,1,0.00
2012-12-2,59,55,47,47,45,41,79,69,64,30.17,30.09,6,3,9,0.00
2012-12-14,46,36,23,29,26,21,91,67,48,30.26,30.21,4,1,0,0.00
2012-12-15,47,36,28,31,27,23,87,68,43,30.23,29.99,2,0,0,0.00
2012-12-16,47,43,39,40,35,30,78,74,71,29.99,29.77,0,0,1,0.00
2012-12-17,55,47,42,50,45,41,98,94,78,29.79,29.52,3,0,0,0.97
2012-12-18,44,38,33,44,36,30,99,93,88,29.79,29.49,5,2,0,0.43
2012-12-19,40,36,33,37,34,32,96,92,87,30.14,29.74,5,1,0,0.08
2012-12-20,35,33,30,34,32,30,98,97,91,30.14,29.41,2,0,7,0.76
2012-12-21,35,30,26,35,29,24,98,93,85,29.54,29.29,17,4,17,0.05
2012-12-22,27,26,23,24,22,19,93,86,81,30.01,29.54,16,5,16,0.06
2012-12-23,38,29,21,26,22,18,89,77,59,30.00,29.83,5,2,9,0.01
2012-12-24,35,29,25,29,26,21,97,87,73,29.96,29.80,2,1,9,0.15
2012-12-25,33,30,29,32,29,27,98,96,92,30.17,29.82,2,0,4,0.03
2012-12-26,29,25,22,28,24,21,97,95,91,30.17,29.53,4,1,7,0.69
2012-12-27,27,26,24,25,24,23,96,93,90,30.01,29.53,3,1,8,0.08
2012-12-28,31,28,22,26,24,19,92,85,79,30.09,29.99,2,1,5,0.00
2012-12-29,31,27,25,30,26,24,96,93,90,29.82,29.55,4,1,9,0.40
2012-12-30,26,24,22,24,22,18,93,89,87,30.26,29.82,6,3,14,0.02
2012-12-31,33,28,21,27,22,19,92,78,62,30.24,29.95,7,4,14,0.00
2013-1-1,30,29,28,28,27,26,94,91,89,29.96,29.87,4,2,11,0.00